Summit — V7JE3 — position and weather

sailwx.info

Track history (hours):
 
Tides and Currents Weather Stations Pressure Air Temp Water Temp Dewpoint Dewpoint Depression Visibility Wind Speed Wind Dir Waves Ship Positions

Summit

Last reported at 2017-Dec-28 04:20 UTC. Time now 2018-Jan-22 22:23 UTC.
Position N 33°25' E 131°54'.
Warning: this ship's position is 25 days out of date.

Length 180 m; draft 7.8 m.

Type: Ship. MMSI: 538006040.

Date/timePositionNaut miles runAvg speedWind from/ knotsBaromVisibWave heightAir tempDewpointWater temp
2017-Dec-28 04:20N 33°25' E 131°54'611.8
2017-Dec-28 03:47N 33°31' E 131°51'411.8
2017-Dec-28 03:28N 33°35' E 131°49'712.0
2017-Dec-28 02:52N 33°41' E 131°45'511.9
2017-Dec-28 02:27N 33°46' E 131°43'512.2
2017-Dec-28 02:00N 33°46' E 131°36'611.9
2017-Dec-28 01:30N 33°48' E 131°29'612.3
2017-Dec-28 01:00N 33°49' E 131°22'612.2
2017-Dec-28 00:30N 33°51' E 131°15'612.2
2017-Dec-28 00:00N 33°53' E 131°08'611.6
2017-Dec-27 23:30N 33°57' E 131°03'5 9.4
2017-Dec-27 23:00N 33°57' E 130°57'4 7.6
2017-Dec-27 22:30N 33°55' E 130°53'3 6.4
2017-Dec-27 22:00N 33°55' E 130°49'0 0.3
2017-Dec-27 21:28N 33°55' E 130°49'0 0.0
2017-Dec-27 20:58N 33°55' E 130°49'0 0.0
2017-Dec-27 20:22N 33°55' E 130°49'0 0.0
2017-Dec-27 19:58N 33°55' E 130°49'0 0.0
2017-Dec-27 19:28N 33°55' E 130°49'0 0.0
2017-Dec-27 18:58N 33°55' E 130°49'0 0.0
2017-Dec-27 18:28N 33°55' E 130°49'0 0.0
2017-Dec-27 17:58N 33°55' E 130°49'0 0.0
2017-Dec-27 17:25N 33°55' E 130°49'0 0.0
2017-Dec-27 16:55N 33°55' E 130°49'0 0.0
2017-Dec-27 16:28N 33°55' E 130°49'0 0.0
2017-Dec-27 15:58N 33°55' E 130°49'0 0.0
2017-Dec-27 15:22N 33°55' E 130°49'0 0.0
2017-Dec-27 14:58N 33°55' E 130°49'0 0.0
2017-Dec-27 14:28N 33°55' E 130°49'0 0.0
2017-Dec-27 13:58N 33°55' E 130°49'0 0.0
2017-Dec-27 13:28N 33°55' E 130°49'0 0.0
2017-Dec-27 12:58N 33°55' E 130°49'0 0.0
2017-Dec-27 12:28N 33°55' E 130°49'0 0.0
2017-Dec-27 11:58N 33°55' E 130°49'0 0.0
2017-Dec-27 11:28N 33°55' E 130°49'0 0.0
2017-Dec-27 10:58N 33°55' E 130°49'0 0.0
2017-Dec-27 10:28N 33°55' E 130°49'0 0.0
2017-Dec-27 09:58N 33°55' E 130°49'0 0.0
2017-Dec-27 09:28N 33°55' E 130°49'0 0.0
2017-Dec-27 08:58N 33°55' E 130°49'0 0.0
2017-Dec-27 08:28N 33°55' E 130°49'0 0.0
2017-Dec-27 07:55N 33°55' E 130°49'0 0.0
2017-Dec-27 07:28N 33°55' E 130°49'0 0.0
2017-Dec-27 06:58N 33°55' E 130°49'0 0.0
2017-Dec-27 06:28N 33°55' E 130°49'0 0.0
2017-Dec-27 05:55N 33°55' E 130°49'0 0.0
2017-Dec-27 05:28N 33°55' E 130°49'0 0.0
2017-Dec-27 04:58N 33°55' E 130°49'2 3.3
2017-Dec-27 04:30N 33°56' E 130°51'4 8.8
2017-Dec-27 04:00N 33°55' E 130°56'5 9.9
2017-Dec-27 03:30N 33°59' E 130°59'3 6.6
2017-Dec-27 03:00N 33°57' E 131°03'3 6.6
2017-Dec-27 02:30N 33°55' E 131°06'3 5.5
2017-Dec-27 02:00N 33°54' E 131°09'3 5.4
2017-Dec-27 01:30N 33°52' E 131°12'3 6.0
2017-Dec-27 01:00N 33°51' E 131°15'3 6.2
2017-Dec-27 00:30N 33°51' E 131°19'3 5.4
2017-Dec-27 00:00N 33°50' E 131°22'3 5.6
2017-Dec-26 23:30N 33°50' E 131°25'4 7.2
2017-Dec-26 23:00N 33°49' E 131°29'2 4.3
2017-Dec-26 22:30N 33°48' E 131°32'2 4.0
2017-Dec-26 22:00N 33°48' E 131°34'2 3.7
2017-Dec-26 21:30N 33°47' E 131°36'3 5.5
2017-Dec-26 21:00N 33°47' E 131°40'510.2
2017-Dec-26 20:30N 33°45' E 131°45'611.5
2017-Dec-26 20:00N 33°39' E 131°47'612.1
2017-Dec-26 19:30N 33°34' E 131°51'612.4
2017-Dec-26 18:59N 33°28' E 131°54'612.8
2017-Dec-26 18:30N 33°22' E 131°57'712.6
2017-Dec-26 17:59N 33°17' E 132°02'612.8
2017-Dec-26 17:30N 33°12' E 132°06'148 8.6
2017-Dec-26 00:09N 33°54' E 134°56'212.1
2017-Dec-26 00:00N 33°56' E 134°57'611.8
2017-Dec-25 23:30N 34°02' E 134°58'611.9
2017-Dec-25 23:01N 34°08' E 135°00'611.9
2017-Dec-25 22:31N 34°13' E 135°03'4 7.1
2017-Dec-25 22:00N 34°14' E 135°07'0 0.4
2017-Dec-25 21:28N 34°14' E 135°07'0 0.0
2017-Dec-25 20:58N 34°14' E 135°07'0 0.0
2017-Dec-25 20:28N 34°14' E 135°07'0 0.0
2017-Dec-25 19:59N 34°14' E 135°07'0 0.0
2017-Dec-25 19:28N 34°14' E 135°07'0 0.0
2017-Dec-25 18:58N 34°14' E 135°07'0 0.0
2017-Dec-25 18:28N 34°14' E 135°07'0 0.0
2017-Dec-25 17:58N 34°14' E 135°07'0 0.0
2017-Dec-25 17:28N 34°14' E 135°07'0 0.0
2017-Dec-25 16:58N 34°14' E 135°07'0 0.0
2017-Dec-25 16:28N 34°14' E 135°07'0 0.0
2017-Dec-25 15:58N 34°14' E 135°07'0 0.0
2017-Dec-25 15:28N 34°14' E 135°07'0 0.0
2017-Dec-25 14:58N 34°14' E 135°07'0 0.0
2017-Dec-25 14:28N 34°14' E 135°07'0 0.0
2017-Dec-25 13:58N 34°14' E 135°07'0 0.0
2017-Dec-25 13:28N 34°14' E 135°07'0 0.0
2017-Dec-25 12:58N 34°14' E 135°07'0 0.0
2017-Dec-25 12:25N 34°14' E 135°07'0 0.0
2017-Dec-25 11:58N 34°14' E 135°07'0 0.0
2017-Dec-25 11:28N 34°14' E 135°07'0 0.0
2017-Dec-25 10:58N 34°14' E 135°07'0 0.0
2017-Dec-25 10:28N 34°14' E 135°07'0 0.0
2017-Dec-25 09:58N 34°14' E 135°07'0 0.0
2017-Dec-25 09:25N 34°14' E 135°07'0 0.0
2017-Dec-25 08:58N 34°14' E 135°07'0 0.1
2017-Dec-25 08:28N 34°14' E 135°07'0 0.1
2017-Dec-25 07:58N 34°14' E 135°07'0 0.0
2017-Dec-25 07:28N 34°14' E 135°07'0 0.0
2017-Dec-25 06:55N 34°14' E 135°07'0 0.0
2017-Dec-25 06:28N 34°14' E 135°07'0 0.0
2017-Dec-25 05:58N 34°14' E 135°07'0 0.0
2017-Dec-25 05:28N 34°14' E 135°07'0 0.0
2017-Dec-25 04:58N 34°14' E 135°07'0 0.0
2017-Dec-25 04:28N 34°14' E 135°07'0 0.0
2017-Dec-25 03:58N 34°14' E 135°07'0 0.0
2017-Dec-25 03:28N 34°14' E 135°07'0 0.0
2017-Dec-25 02:58N 34°14' E 135°07'0 0.0
2017-Dec-25 02:28N 34°14' E 135°07'0 0.0
2017-Dec-25 01:49N 34°14' E 135°07'0 0.0
2017-Dec-25 01:25N 34°14' E 135°07'0 0.0
2017-Dec-25 00:58N 34°14' E 135°07'0 0.0
2017-Dec-25 00:28N 34°14' E 135°07'0 0.0
2017-Dec-24 23:37N 34°14' E 135°07'0 0.0
2017-Dec-24 23:28N 34°14' E 135°07'0 0.0
2017-Dec-24 22:58N 34°14' E 135°07'0 0.0
2017-Dec-24 22:28N 34°14' E 135°07'0 0.0
2017-Dec-24 21:58N 34°14' E 135°07'0 0.0
2017-Dec-24 21:28N 34°14' E 135°07'0 0.0
2017-Dec-24 20:58N 34°14' E 135°07'0 0.0
2017-Dec-24 20:16N 34°14' E 135°07'0 0.0
2017-Dec-24 19:52N 34°14' E 135°07'0 0.0
2017-Dec-24 19:28N 34°14' E 135°07'0 0.0
2017-Dec-24 18:58N 34°14' E 135°07'0 0.0
2017-Dec-24 18:28N 34°14' E 135°07'0 0.0
2017-Dec-24 17:58N 34°14' E 135°07'0 0.0
2017-Dec-24 17:28N 34°14' E 135°07'0 0.0
2017-Dec-24 16:58N 34°14' E 135°07'0 0.0
2017-Dec-24 16:28N 34°14' E 135°07'0 0.0
2017-Dec-24 15:58N 34°14' E 135°07'0 0.0
2017-Dec-24 15:28N 34°14' E 135°07'0 0.0
2017-Dec-24 14:52N 34°14' E 135°07'0 0.0
2017-Dec-24 14:28N 34°14' E 135°07'0 0.0
2017-Dec-24 13:52N 34°14' E 135°07'0 0.0
2017-Dec-24 13:28N 34°14' E 135°07'0 0.0
2017-Dec-24 12:58N 34°14' E 135°07'0 0.0
2017-Dec-24 12:28N 34°14' E 135°07'0 0.1
2017-Dec-24 11:58N 34°14' E 135°07'0 0.1
2017-Dec-24 11:28N 34°14' E 135°07'0 0.0
2017-Dec-24 10:58N 34°14' E 135°07'0 0.0
2017-Dec-24 10:19N 34°14' E 135°07'0 0.0
2017-Dec-24 09:55N 34°14' E 135°07'0 0.0
2017-Dec-24 09:28N 34°14' E 135°07'0 0.0
2017-Dec-24 08:40N 34°14' E 135°07'0 0.0
2017-Dec-24 08:28N 34°14' E 135°07'0 0.0
2017-Dec-24 07:58N 34°14' E 135°07'0 0.0
2017-Dec-24 07:28N 34°14' E 135°07'0 0.0
2017-Dec-24 06:58N 34°14' E 135°07'0 0.0
2017-Dec-24 06:28N 34°14' E 135°07'0 0.0
2017-Dec-24 05:58N 34°14' E 135°07'0 0.0
2017-Dec-24 05:28N 34°14' E 135°07'0 0.0
2017-Dec-24 04:58N 34°14' E 135°07'0 0.0
2017-Dec-24 04:28N 34°14' E 135°07'0 0.0
2017-Dec-24 03:58N 34°14' E 135°07'0 0.0
2017-Dec-24 03:28N 34°14' E 135°07'0 0.0
2017-Dec-24 02:58N 34°14' E 135°07'0 0.0
2017-Dec-24 02:28N 34°14' E 135°07'0 0.0
2017-Dec-24 01:58N 34°14' E 135°07'0 0.0
2017-Dec-24 01:28N 34°14' E 135°07'0 0.0
2017-Dec-24 00:58N 34°14' E 135°07'0 0.0
2017-Dec-24 00:28N 34°14' E 135°07'0 0.0
2017-Dec-23 23:58N 34°14' E 135°07'0 0.0
2017-Dec-23 23:28N 34°14' E 135°07'0 0.0
2017-Dec-23 22:58N 34°14' E 135°07'0 0.0
2017-Dec-23 22:28N 34°14' E 135°07'0 0.0
2017-Dec-23 21:58N 34°14' E 135°07'0 0.0
2017-Dec-23 21:28N 34°14' E 135°07'0 0.0
2017-Dec-23 20:58N 34°14' E 135°07'0 0.1
2017-Dec-23 20:28N 34°14' E 135°07'0 0.1
2017-Dec-23 19:58N 34°14' E 135°07'0 0.0
2017-Dec-23 19:28N 34°14' E 135°07'0 0.0
2017-Dec-23 18:58N 34°14' E 135°07'0 0.0
2017-Dec-23 18:28N 34°14' E 135°07'0 0.0
2017-Dec-23 17:58N 34°14' E 135°07'0 0.0
2017-Dec-23 17:28N 34°14' E 135°07'0 0.0
2017-Dec-23 16:58N 34°14' E 135°07'0 0.0
2017-Dec-23 16:28N 34°14' E 135°07'0 0.0
2017-Dec-23 15:58N 34°14' E 135°07'0 0.0
2017-Dec-23 15:28N 34°14' E 135°07'0 0.0
2017-Dec-23 14:58N 34°14' E 135°07'0 0.0
2017-Dec-23 14:28N 34°14' E 135°07'0 0.0
2017-Dec-23 13:58N 34°14' E 135°07'0 0.0
2017-Dec-23 13:28N 34°14' E 135°07'0 0.0
2017-Dec-23 12:58N 34°14' E 135°07'0 0.0
2017-Dec-23 12:28N 34°14' E 135°07'0 0.0
2017-Dec-23 11:58N 34°14' E 135°07'0 0.0
2017-Dec-23 11:28N 34°14' E 135°07'0 0.0
2017-Dec-23 10:58N 34°14' E 135°07'0 0.0
2017-Dec-23 10:28N 34°14' E 135°07'0 0.0
2017-Dec-23 09:58N 34°14' E 135°07'0 0.0
2017-Dec-23 09:28N 34°14' E 135°07'0 0.0
2017-Dec-23 08:58N 34°14' E 135°07'0 0.0
2017-Dec-23 08:28N 34°14' E 135°07'0 0.0
2017-Dec-23 07:58N 34°14' E 135°07'0 0.0
2017-Dec-23 07:28N 34°14' E 135°07'0 0.0
2017-Dec-23 06:58N 34°14' E 135°07'0 0.0
2017-Dec-23 06:28N 34°14' E 135°07'0 0.0
2017-Dec-23 05:58N 34°14' E 135°07'0 0.0
2017-Dec-23 05:28N 34°14' E 135°07'0 0.0
2017-Dec-23 04:58N 34°14' E 135°07'0 0.0
2017-Dec-23 04:28N 34°14' E 135°07'0 0.0
2017-Dec-23 03:58N 34°14' E 135°07'0 0.0
2017-Dec-23 03:28N 34°14' E 135°07'0 0.0
2017-Dec-23 02:58N 34°14' E 135°07'0 0.0
2017-Dec-23 02:28N 34°14' E 135°07'0 0.0
2017-Dec-23 01:58N 34°14' E 135°07'0 0.0
2017-Dec-23 01:28N 34°14' E 135°07'0 0.0
2017-Dec-23 00:58N 34°14' E 135°07'0 0.0
2017-Dec-23 00:28N 34°14' E 135°07'0 0.1
2017-Dec-22 23:58N 34°14' E 135°07'0 0.1
2017-Dec-22 23:28N 34°14' E 135°07'0 0.0
2017-Dec-22 22:58N 34°14' E 135°07'0 0.0
2017-Dec-22 22:28N 34°14' E 135°07'0 0.0
2017-Dec-22 21:58N 34°14' E 135°07'0 0.0
2017-Dec-22 21:28N 34°14' E 135°07'0 0.0
2017-Dec-22 20:58N 34°14' E 135°07'0 0.0
2017-Dec-22 20:28N 34°14' E 135°07'0 0.0
2017-Dec-22 19:58N 34°14' E 135°07'0 0.0
2017-Dec-22 19:28N 34°14' E 135°07'0 0.0
2017-Dec-22 18:58N 34°14' E 135°07'0 0.0
2017-Dec-22 18:28N 34°14' E 135°07'0 0.0
2017-Dec-22 17:58N 34°14' E 135°07'0 0.0
2017-Dec-22 17:28N 34°14' E 135°07'0 0.0
2017-Dec-22 16:58N 34°14' E 135°07'0 0.0
2017-Dec-22 16:28N 34°14' E 135°07'0 0.0
2017-Dec-22 15:58N 34°14' E 135°07'0 0.0
2017-Dec-22 15:28N 34°14' E 135°07'0 0.0
2017-Dec-22 14:58N 34°14' E 135°07'0 0.0
2017-Dec-22 14:28N 34°14' E 135°07'0 0.0
2017-Dec-22 13:58N 34°14' E 135°07'0 0.0
2017-Dec-22 13:28N 34°14' E 135°07'0 0.0
2017-Dec-22 12:58N 34°14' E 135°07'0 0.0
2017-Dec-22 12:28N 34°14' E 135°07'0 0.0
2017-Dec-22 11:58N 34°14' E 135°07'0 0.0
2017-Dec-22 11:28N 34°14' E 135°07'0 0.0
2017-Dec-22 10:58N 34°14' E 135°07'0 0.0
2017-Dec-22 10:28N 34°14' E 135°07'0 0.0
2017-Dec-22 09:58N 34°14' E 135°07'0 0.0
2017-Dec-22 09:28N 34°14' E 135°07'0 0.0
2017-Dec-22 08:58N 34°14' E 135°07'0 0.0
2017-Dec-22 08:28N 34°14' E 135°07'0 0.0
2017-Dec-22 07:58N 34°14' E 135°07'0 0.0
2017-Dec-22 07:28N 34°14' E 135°07'0 0.0
2017-Dec-22 06:58N 34°14' E 135°07'0 0.0
2017-Dec-22 06:28N 34°14' E 135°07'0 0.0
2017-Dec-22 05:58N 34°14' E 135°07'0 0.0
2017-Dec-22 05:28N 34°14' E 135°07'0 0.0
2017-Dec-22 04:58N 34°14' E 135°07'0 0.0
2017-Dec-22 04:28N 34°14' E 135°07'0 0.0
2017-Dec-22 03:58N 34°14' E 135°07'0 0.0
2017-Dec-22 03:28N 34°14' E 135°07'0 0.0
2017-Dec-22 02:58N 34°14' E 135°07'0 0.0
2017-Dec-22 02:28N 34°14' E 135°07'0 0.0
2017-Dec-22 01:58N 34°14' E 135°07'0 0.0
2017-Dec-22 01:28N 34°14' E 135°07'0 0.0
2017-Dec-22 00:58N 34°14' E 135°07'0 0.0
2017-Dec-22 00:28N 34°14' E 135°07'0 0.0
2017-Dec-21 23:58N 34°14' E 135°07'0 0.0
2017-Dec-21 23:28N 34°14' E 135°07'0 0.0
2017-Dec-21 22:58N 34°14' E 135°07'0 0.0
2017-Dec-21 22:22N 34°14' E 135°07'0 0.0
2017-Dec-21 21:58N 34°14' E 135°07'0 0.0
2017-Dec-21 21:28N 34°14' E 135°07'0 0.0
2017-Dec-21 20:58N 34°14' E 135°07'0 0.0
2017-Dec-21 20:28N 34°14' E 135°07'0 0.0
2017-Dec-21 19:58N 34°14' E 135°07'0 0.0
2017-Dec-21 19:28N 34°14' E 135°07'0 0.0
2017-Dec-21 18:58N 34°14' E 135°07'0 0.0
2017-Dec-21 18:28N 34°14' E 135°07'0 0.0
2017-Dec-21 17:58N 34°14' E 135°07'0 0.0
2017-Dec-21 17:28N 34°14' E 135°07'0 0.0
2017-Dec-21 16:58N 34°14' E 135°07'0 0.0
2017-Dec-21 16:28N 34°14' E 135°07'0 0.0
2017-Dec-21 15:58N 34°14' E 135°07'0 0.0
2017-Dec-21 15:28N 34°14' E 135°07'0 0.0
2017-Dec-21 14:58N 34°14' E 135°07'0 0.0
2017-Dec-21 14:28N 34°14' E 135°07'0 0.0
2017-Dec-21 13:58N 34°14' E 135°07'0 0.0
2017-Dec-21 13:28N 34°14' E 135°07'0 0.0
2017-Dec-21 12:58N 34°14' E 135°07'0 0.0
2017-Dec-21 12:28N 34°14' E 135°07'0 0.0
2017-Dec-21 11:58N 34°14' E 135°07'0 0.0
2017-Dec-21 11:28N 34°14' E 135°07'0 0.0
2017-Dec-21 10:58N 34°14' E 135°07'0 0.0
2017-Dec-21 10:22N 34°14' E 135°07'0 0.0
2017-Dec-21 09:58N 34°14' E 135°07'0 0.0
2017-Dec-21 09:16N 34°14' E 135°07'0 0.0
2017-Dec-21 08:58N 34°14' E 135°07'0 0.0
2017-Dec-21 08:28N 34°14' E 135°07'0 0.0
2017-Dec-21 07:58N 34°14' E 135°07'0 0.0
2017-Dec-21 07:28N 34°14' E 135°07'0 0.0
2017-Dec-21 06:58N 34°14' E 135°07'0 0.0
2017-Dec-21 06:28N 34°14' E 135°07'0 0.0
2017-Dec-21 05:58N 34°14' E 135°07'0 0.0
2017-Dec-21 05:28N 34°14' E 135°07'0 0.0
2017-Dec-21 04:58N 34°14' E 135°07'0 0.0
2017-Dec-21 04:28N 34°14' E 135°07'0 0.0
2017-Dec-21 03:58N 34°14' E 135°07'0 0.0
2017-Dec-21 03:28N 34°14' E 135°07'0 0.0
2017-Dec-21 02:58N 34°14' E 135°07'0 0.0
2017-Dec-21 02:28N 34°14' E 135°07'0 0.0
2017-Dec-21 01:58N 34°14' E 135°07'0 0.0
2017-Dec-21 01:28N 34°14' E 135°07'0 0.0
2017-Dec-21 00:58N 34°14' E 135°07'0 0.0
2017-Dec-21 00:28N 34°14' E 135°07'0 0.0
2017-Dec-20 23:58N 34°14' E 135°07'0 0.0
2017-Dec-20 23:28N 34°14' E 135°07'0 0.0
2017-Dec-20 22:58N 34°14' E 135°07'0 0.0
2017-Dec-20 22:28N 34°14' E 135°07'0 0.0
2017-Dec-20 21:58N 34°14' E 135°07'0 0.0
2017-Dec-20 21:28N 34°14' E 135°07'0 0.0
2017-Dec-20 20:58N 34°14' E 135°07'0 0.0
2017-Dec-20 20:28N 34°14' E 135°07'0 0.0
2017-Dec-20 19:58N 34°14' E 135°07'0 0.0
2017-Dec-20 19:28N 34°14' E 135°07'0 0.0
2017-Dec-20 18:58N 34°14' E 135°07'0 0.0
2017-Dec-20 18:28N 34°14' E 135°07'0 0.0
2017-Dec-20 17:58N 34°14' E 135°07'0 0.0
2017-Dec-20 17:28N 34°14' E 135°07'0 0.0
2017-Dec-20 16:58N 34°14' E 135°07'0 0.0
2017-Dec-20 16:28N 34°14' E 135°07'0 0.0
2017-Dec-20 15:58N 34°14' E 135°07'0 0.0
2017-Dec-20 15:28N 34°14' E 135°07'0 0.0
2017-Dec-20 14:58N 34°14' E 135°07'0 0.0
2017-Dec-20 14:28N 34°14' E 135°07'0 0.0
2017-Dec-20 13:58N 34°14' E 135°07'0 0.0
2017-Dec-20 13:28N 34°14' E 135°07'0 0.0
2017-Dec-20 12:58N 34°14' E 135°07'0 0.0
2017-Dec-20 12:28N 34°14' E 135°07'0 0.0
2017-Dec-20 11:58N 34°14' E 135°07'0 0.0
2017-Dec-20 11:28N 34°14' E 135°07'0 0.0
2017-Dec-20 10:58N 34°14' E 135°07'0 0.0
2017-Dec-20 10:28N 34°14' E 135°07'0 0.0
2017-Dec-20 09:58N 34°14' E 135°07'0 0.0
2017-Dec-20 09:28N 34°14' E 135°07'0 0.0
2017-Dec-20 08:58N 34°14' E 135°07'0 0.0
2017-Dec-20 08:28N 34°14' E 135°07'0 0.0
2017-Dec-20 07:58N 34°14' E 135°07'0 0.0
2017-Dec-20 07:28N 34°14' E 135°07'0 0.0
2017-Dec-20 06:58N 34°14' E 135°07'0 0.0
2017-Dec-20 06:28N 34°14' E 135°07'0 0.0
2017-Dec-20 05:58N 34°14' E 135°07'0 0.0
2017-Dec-20 05:28N 34°14' E 135°07'0 0.0
2017-Dec-20 04:58N 34°14' E 135°07'0 0.1
2017-Dec-20 04:28N 34°14' E 135°07'0 0.1
2017-Dec-20 03:58N 34°14' E 135°07'0 0.0
2017-Dec-20 03:28N 34°14' E 135°07'0 0.0
2017-Dec-20 02:58N 34°14' E 135°07'0 0.0
2017-Dec-20 02:28N 34°14' E 135°07'0 0.0
2017-Dec-20 01:58N 34°14' E 135°07'0 0.0
2017-Dec-20 01:28N 34°14' E 135°07'0 0.0
2017-Dec-20 00:58N 34°14' E 135°07'0 0.0
2017-Dec-20 00:28N 34°14' E 135°07'0 0.0
2017-Dec-19 23:58N 34°14' E 135°07'0 0.0
2017-Dec-19 23:28N 34°14' E 135°07'0 0.0
2017-Dec-19 22:58N 34°14' E 135°07'0 0.0
2017-Dec-19 22:28N 34°14' E 135°07'0 0.0
2017-Dec-19 21:58N 34°14' E 135°07'0 0.0
2017-Dec-19 21:28N 34°14' E 135°07'0 0.0
2017-Dec-19 20:58N 34°14' E 135°07'0 0.1
2017-Dec-19 20:28N 34°14' E 135°07'0 0.1
2017-Dec-19 19:58N 34°14' E 135°07'0 0.0
2017-Dec-19 19:28N 34°14' E 135°07'0 0.0
2017-Dec-19 18:58N 34°14' E 135°07'0 0.0
2017-Dec-19 18:28N 34°14' E 135°07'0 0.0
2017-Dec-19 17:58N 34°14' E 135°07'0 0.0
2017-Dec-19 17:28N 34°14' E 135°07'0 0.0
2017-Dec-19 16:58N 34°14' E 135°07'0 0.0
2017-Dec-19 16:28N 34°14' E 135°07'0 0.0
2017-Dec-19 15:58N 34°14' E 135°07'0 0.0
2017-Dec-19 15:28N 34°14' E 135°07'0 0.0
2017-Dec-19 14:58N 34°14' E 135°07'0 0.0
2017-Dec-19 14:28N 34°14' E 135°07'0 0.0
2017-Dec-19 13:58N 34°14' E 135°07'0 0.0
2017-Dec-19 13:28N 34°14' E 135°07'0 0.0
2017-Dec-19 12:58N 34°14' E 135°07'0 0.0
2017-Dec-19 12:28N 34°14' E 135°07'0 0.0
2017-Dec-19 11:58N 34°14' E 135°07'0 0.0
2017-Dec-19 11:28N 34°14' E 135°07'0 0.0
2017-Dec-19 10:58N 34°14' E 135°07'0 0.0
2017-Dec-19 10:28N 34°14' E 135°07'0 0.0
2017-Dec-19 09:58N 34°14' E 135°07'0 0.0
2017-Dec-19 09:28N 34°14' E 135°07'0 0.0
2017-Dec-19 08:58N 34°14' E 135°07'0 0.0
2017-Dec-19 08:28N 34°14' E 135°07'0 0.0
2017-Dec-19 07:58N 34°14' E 135°07'0 0.0
2017-Dec-19 07:28N 34°14' E 135°07'0 0.0
2017-Dec-19 06:58N 34°14' E 135°07'0 0.0
2017-Dec-19 06:28N 34°14' E 135°07'0 0.0
2017-Dec-19 05:58N 34°14' E 135°07'0 0.0
2017-Dec-19 05:25N 34°14' E 135°07'0 0.0
2017-Dec-19 04:58N 34°14' E 135°07'0 0.0
2017-Dec-19 04:28N 34°14' E 135°07'0 0.0
2017-Dec-19 03:58N 34°14' E 135°07'0 0.0
2017-Dec-19 03:28N 34°14' E 135°07'0 0.0
2017-Dec-19 02:58N 34°14' E 135°07'0 0.0
2017-Dec-19 02:28N 34°14' E 135°07'0 0.0
2017-Dec-19 01:58N 34°14' E 135°07'0 0.0
2017-Dec-19 01:28N 34°14' E 135°07'0 0.0
2017-Dec-19 00:55N 34°14' E 135°07'0 0.0
2017-Dec-19 00:28N 34°14' E 135°07'0 0.0
2017-Dec-18 23:58N 34°14' E 135°07'0 0.0
2017-Dec-18 23:28N 34°14' E 135°07'0 0.0
2017-Dec-18 22:58N 34°14' E 135°07'0 0.0
2017-Dec-18 22:28N 34°14' E 135°07'0 0.0
2017-Dec-18 21:58N 34°14' E 135°07'0 0.0
2017-Dec-18 21:28N 34°14' E 135°07'0 0.0
2017-Dec-18 20:58N 34°14' E 135°07'0 0.0
2017-Dec-18 20:28N 34°14' E 135°07'0 0.0
2017-Dec-18 19:58N 34°14' E 135°07'0 0.0
2017-Dec-18 19:28N 34°14' E 135°07'0 0.0
2017-Dec-18 18:58N 34°14' E 135°07'0 0.0
2017-Dec-18 18:28N 34°14' E 135°07'0 0.0
2017-Dec-18 17:58N 34°14' E 135°07'0 0.0
2017-Dec-18 17:28N 34°14' E 135°07'0 0.0
2017-Dec-18 16:58N 34°14' E 135°07'0 0.0
2017-Dec-18 16:28N 34°14' E 135°07'0 0.0
2017-Dec-18 15:58N 34°14' E 135°07'0 0.0
2017-Dec-18 15:28N 34°14' E 135°07'0 0.0
2017-Dec-18 14:58N 34°14' E 135°07'0 0.0
2017-Dec-18 14:28N 34°14' E 135°07'0 0.0
2017-Dec-18 13:58N 34°14' E 135°07'0 0.0
2017-Dec-18 13:28N 34°14' E 135°07'0 0.0
2017-Dec-18 12:58N 34°14' E 135°07'0 0.0
2017-Dec-18 12:28N 34°14' E 135°07'0 0.0
2017-Dec-18 11:58N 34°14' E 135°07'0 0.0
2017-Dec-18 11:28N 34°14' E 135°07'0 0.0
2017-Dec-18 10:58N 34°14' E 135°07'0 0.0
2017-Dec-18 10:28N 34°14' E 135°07'0 0.0
2017-Dec-18 09:58N 34°14' E 135°07'0 0.0
2017-Dec-18 09:28N 34°14' E 135°07'0 0.0
2017-Dec-18 08:58N 34°14' E 135°07'0 0.0
2017-Dec-18 08:28N 34°14' E 135°07'0 0.0
2017-Dec-18 07:58N 34°14' E 135°07'0 0.0
2017-Dec-18 07:28N 34°14' E 135°07'0 0.0
2017-Dec-18 06:58N 34°14' E 135°07'0 0.0
2017-Dec-18 06:28N 34°14' E 135°07'0 0.0
2017-Dec-18 05:58N 34°14' E 135°07'0 0.0
2017-Dec-18 05:28N 34°14' E 135°07'0 0.0
2017-Dec-18 04:58N 34°14' E 135°07'0 0.0
2017-Dec-18 04:28N 34°14' E 135°07'  
Track history (hours):
 
Tides and Currents Weather Stations Pressure Air Temp Water Temp Dewpoint Dewpoint Depression Visibility Wind Speed Wind Dir Waves Ship Positions

Summit

Last reported at 2017-Dec-28 04:20 UTC. Time now 2018-Jan-22 22:23 UTC.
Position N 33°25' E 131°54'.
Warning: this ship's position is 25 days out of date.

Length 180 m; draft 7.8 m.

Type: Ship. MMSI: 538006040.

Date/timePositionNaut miles runAvg speedWind from/ knotsBaromVisibWave heightAir tempDewpointWater temp
2017-Dec-28 04:20N 33°25' E 131°54'611.8
2017-Dec-28 03:47N 33°31' E 131°51'411.8
2017-Dec-28 03:28N 33°35' E 131°49'712.0
2017-Dec-28 02:52N 33°41' E 131°45'511.9
2017-Dec-28 02:27N 33°46' E 131°43'512.2
2017-Dec-28 02:00N 33°46' E 131°36'611.9
2017-Dec-28 01:30N 33°48' E 131°29'612.3
2017-Dec-28 01:00N 33°49' E 131°22'612.2
2017-Dec-28 00:30N 33°51' E 131°15'612.2
2017-Dec-28 00:00N 33°53' E 131°08'611.6
2017-Dec-27 23:30N 33°57' E 131°03'5 9.4
2017-Dec-27 23:00N 33°57' E 130°57'4 7.6
2017-Dec-27 22:30N 33°55' E 130°53'3 6.4
2017-Dec-27 22:00N 33°55' E 130°49'0 0.3
2017-Dec-27 21:28N 33°55' E 130°49'0 0.0
2017-Dec-27 20:58N 33°55' E 130°49'0 0.0
2017-Dec-27 20:22N 33°55' E 130°49'0 0.0
2017-Dec-27 19:58N 33°55' E 130°49'0 0.0
2017-Dec-27 19:28N 33°55' E 130°49'0 0.0
2017-Dec-27 18:58N 33°55' E 130°49'0 0.0
2017-Dec-27 18:28N 33°55' E 130°49'0 0.0
2017-Dec-27 17:58N 33°55' E 130°49'0 0.0
2017-Dec-27 17:25N 33°55' E 130°49'0 0.0
2017-Dec-27 16:55N 33°55' E 130°49'0 0.0
2017-Dec-27 16:28N 33°55' E 130°49'0 0.0
2017-Dec-27 15:58N 33°55' E 130°49'0 0.0
2017-Dec-27 15:22N 33°55' E 130°49'0 0.0
2017-Dec-27 14:58N 33°55' E 130°49'0 0.0
2017-Dec-27 14:28N 33°55' E 130°49'0 0.0
2017-Dec-27 13:58N 33°55' E 130°49'0 0.0
2017-Dec-27 13:28N 33°55' E 130°49'0 0.0
2017-Dec-27 12:58N 33°55' E 130°49'0 0.0
2017-Dec-27 12:28N 33°55' E 130°49'0 0.0
2017-Dec-27 11:58N 33°55' E 130°49'0 0.0
2017-Dec-27 11:28N 33°55' E 130°49'0 0.0
2017-Dec-27 10:58N 33°55' E 130°49'0 0.0
2017-Dec-27 10:28N 33°55' E 130°49'0 0.0
2017-Dec-27 09:58N 33°55' E 130°49'0 0.0
2017-Dec-27 09:28N 33°55' E 130°49'0 0.0
2017-Dec-27 08:58N 33°55' E 130°49'0 0.0
2017-Dec-27 08:28N 33°55' E 130°49'0 0.0
2017-Dec-27 07:55N 33°55' E 130°49'0 0.0
2017-Dec-27 07:28N 33°55' E 130°49'0 0.0
2017-Dec-27 06:58N 33°55' E 130°49'0 0.0
2017-Dec-27 06:28N 33°55' E 130°49'0 0.0
2017-Dec-27 05:55N 33°55' E 130°49'0 0.0
2017-Dec-27 05:28N 33°55' E 130°49'0 0.0
2017-Dec-27 04:58N 33°55' E 130°49'2 3.3
2017-Dec-27 04:30N 33°56' E 130°51'4 8.8
2017-Dec-27 04:00N 33°55' E 130°56'5 9.9
2017-Dec-27 03:30N 33°59' E 130°59'3 6.6
2017-Dec-27 03:00N 33°57' E 131°03'3 6.6
2017-Dec-27 02:30N 33°55' E 131°06'3 5.5
2017-Dec-27 02:00N 33°54' E 131°09'3 5.4
2017-Dec-27 01:30N 33°52' E 131°12'3 6.0
2017-Dec-27 01:00N 33°51' E 131°15'3 6.2
2017-Dec-27 00:30N 33°51' E 131°19'3 5.4
2017-Dec-27 00:00N 33°50' E 131°22'3 5.6
2017-Dec-26 23:30N 33°50' E 131°25'4 7.2
2017-Dec-26 23:00N 33°49' E 131°29'2 4.3
2017-Dec-26 22:30N 33°48' E 131°32'2 4.0
2017-Dec-26 22:00N 33°48' E 131°34'2 3.7
2017-Dec-26 21:30N 33°47' E 131°36'3 5.5
2017-Dec-26 21:00N 33°47' E 131°40'510.2
2017-Dec-26 20:30N 33°45' E 131°45'611.5
2017-Dec-26 20:00N 33°39' E 131°47'612.1
2017-Dec-26 19:30N 33°34' E 131°51'612.4
2017-Dec-26 18:59N 33°28' E 131°54'612.8
2017-Dec-26 18:30N 33°22' E 131°57'712.6
2017-Dec-26 17:59N 33°17' E 132°02'612.8
2017-Dec-26 17:30N 33°12' E 132°06'148 8.6
2017-Dec-26 00:09N 33°54' E 134°56'212.1
2017-Dec-26 00:00N 33°56' E 134°57'611.8
2017-Dec-25 23:30N 34°02' E 134°58'611.9
2017-Dec-25 23:01N 34°08' E 135°00'611.9
2017-Dec-25 22:31N 34°13' E 135°03'4 7.1
2017-Dec-25 22:00N 34°14' E 135°07'0 0.4
2017-Dec-25 21:28N 34°14' E 135°07'0 0.0
2017-Dec-25 20:58N 34°14' E 135°07'0 0.0
2017-Dec-25 20:28N 34°14' E 135°07'0 0.0
2017-Dec-25 19:59N 34°14' E 135°07'0 0.0
2017-Dec-25 19:28N 34°14' E 135°07'0 0.0
2017-Dec-25 18:58N 34°14' E 135°07'0 0.0
2017-Dec-25 18:28N 34°14' E 135°07'0 0.0
2017-Dec-25 17:58N 34°14' E 135°07'0 0.0
2017-Dec-25 17:28N 34°14' E 135°07'0 0.0
2017-Dec-25 16:58N 34°14' E 135°07'0 0.0
2017-Dec-25 16:28N 34°14' E 135°07'0 0.0
2017-Dec-25 15:58N 34°14' E 135°07'0 0.0
2017-Dec-25 15:28N 34°14' E 135°07'0 0.0
2017-Dec-25 14:58N 34°14' E 135°07'0 0.0
2017-Dec-25 14:28N 34°14' E 135°07'0 0.0
2017-Dec-25 13:58N 34°14' E 135°07'0 0.0
2017-Dec-25 13:28N 34°14' E 135°07'0 0.0
2017-Dec-25 12:58N 34°14' E 135°07'0 0.0
2017-Dec-25 12:25N 34°14' E 135°07'0 0.0
2017-Dec-25 11:58N 34°14' E 135°07'0 0.0
2017-Dec-25 11:28N 34°14' E 135°07'0 0.0
2017-Dec-25 10:58N 34°14' E 135°07'0 0.0
2017-Dec-25 10:28N 34°14' E 135°07'0 0.0
2017-Dec-25 09:58N 34°14' E 135°07'0 0.0
2017-Dec-25 09:25N 34°14' E 135°07'0 0.0
2017-Dec-25 08:58N 34°14' E 135°07'0 0.1
2017-Dec-25 08:28N 34°14' E 135°07'0 0.1
2017-Dec-25 07:58N 34°14' E 135°07'0 0.0
2017-Dec-25 07:28N 34°14' E 135°07'0 0.0
2017-Dec-25 06:55N 34°14' E 135°07'0 0.0
2017-Dec-25 06:28N 34°14' E 135°07'0 0.0
2017-Dec-25 05:58N 34°14' E 135°07'0 0.0
2017-Dec-25 05:28N 34°14' E 135°07'0 0.0
2017-Dec-25 04:58N 34°14' E 135°07'0 0.0
2017-Dec-25 04:28N 34°14' E 135°07'0 0.0
2017-Dec-25 03:58N 34°14' E 135°07'0 0.0
2017-Dec-25 03:28N 34°14' E 135°07'0 0.0
2017-Dec-25 02:58N 34°14' E 135°07'0 0.0
2017-Dec-25 02:28N 34°14' E 135°07'0 0.0
2017-Dec-25 01:49N 34°14' E 135°07'0 0.0
2017-Dec-25 01:25N 34°14' E 135°07'0 0.0
2017-Dec-25 00:58N 34°14' E 135°07'0 0.0
2017-Dec-25 00:28N 34°14' E 135°07'0 0.0
2017-Dec-24 23:37N 34°14' E 135°07'0 0.0
2017-Dec-24 23:28N 34°14' E 135°07'0 0.0
2017-Dec-24 22:58N 34°14' E 135°07'0 0.0
2017-Dec-24 22:28N 34°14' E 135°07'0 0.0
2017-Dec-24 21:58N 34°14' E 135°07'0 0.0
2017-Dec-24 21:28N 34°14' E 135°07'0 0.0
2017-Dec-24 20:58N 34°14' E 135°07'0 0.0
2017-Dec-24 20:16N 34°14' E 135°07'0 0.0
2017-Dec-24 19:52N 34°14' E 135°07'0 0.0
2017-Dec-24 19:28N 34°14' E 135°07'0 0.0
2017-Dec-24 18:58N 34°14' E 135°07'0 0.0
2017-Dec-24 18:28N 34°14' E 135°07'0 0.0
2017-Dec-24 17:58N 34°14' E 135°07'0 0.0
2017-Dec-24 17:28N 34°14' E 135°07'0 0.0
2017-Dec-24 16:58N 34°14' E 135°07'0 0.0
2017-Dec-24 16:28N 34°14' E 135°07'0 0.0
2017-Dec-24 15:58N 34°14' E 135°07'0 0.0
2017-Dec-24 15:28N 34°14' E 135°07'0 0.0
2017-Dec-24 14:52N 34°14' E 135°07'0 0.0
2017-Dec-24 14:28N 34°14' E 135°07'0 0.0
2017-Dec-24 13:52N 34°14' E 135°07'0 0.0
2017-Dec-24 13:28N 34°14' E 135°07'0 0.0
2017-Dec-24 12:58N 34°14' E 135°07'0 0.0
2017-Dec-24 12:28N 34°14' E 135°07'0 0.1
2017-Dec-24 11:58N 34°14' E 135°07'0 0.1
2017-Dec-24 11:28N 34°14' E 135°07'0 0.0
2017-Dec-24 10:58N 34°14' E 135°07'0 0.0
2017-Dec-24 10:19N 34°14' E 135°07'0 0.0
2017-Dec-24 09:55N 34°14' E 135°07'0 0.0
2017-Dec-24 09:28N 34°14' E 135°07'0 0.0
2017-Dec-24 08:40N 34°14' E 135°07'0 0.0
2017-Dec-24 08:28N 34°14' E 135°07'0 0.0
2017-Dec-24 07:58N 34°14' E 135°07'0 0.0
2017-Dec-24 07:28N 34°14' E 135°07'0 0.0
2017-Dec-24 06:58N 34°14' E 135°07'0 0.0
2017-Dec-24 06:28N 34°14' E 135°07'0 0.0
2017-Dec-24 05:58N 34°14' E 135°07'0 0.0
2017-Dec-24 05:28N 34°14' E 135°07'0 0.0
2017-Dec-24 04:58N 34°14' E 135°07'0 0.0
2017-Dec-24 04:28N 34°14' E 135°07'0 0.0
2017-Dec-24 03:58N 34°14' E 135°07'0 0.0
2017-Dec-24 03:28N 34°14' E 135°07'0 0.0
2017-Dec-24 02:58N 34°14' E 135°07'0 0.0
2017-Dec-24 02:28N 34°14' E 135°07'0 0.0
2017-Dec-24 01:58N 34°14' E 135°07'0 0.0
2017-Dec-24 01:28N 34°14' E 135°07'0 0.0
2017-Dec-24 00:58N 34°14' E 135°07'0 0.0
2017-Dec-24 00:28N 34°14' E 135°07'0 0.0
2017-Dec-23 23:58N 34°14' E 135°07'0 0.0
2017-Dec-23 23:28N 34°14' E 135°07'0 0.0
2017-Dec-23 22:58N 34°14' E 135°07'0 0.0
2017-Dec-23 22:28N 34°14' E 135°07'0 0.0
2017-Dec-23 21:58N 34°14' E 135°07'0 0.0
2017-Dec-23 21:28N 34°14' E 135°07'0 0.0
2017-Dec-23 20:58N 34°14' E 135°07'0 0.1
2017-Dec-23 20:28N 34°14' E 135°07'0 0.1
2017-Dec-23 19:58N 34°14' E 135°07'0 0.0
2017-Dec-23 19:28N 34°14' E 135°07'0 0.0
2017-Dec-23 18:58N 34°14' E 135°07'0 0.0
2017-Dec-23 18:28N 34°14' E 135°07'0 0.0
2017-Dec-23 17:58N 34°14' E 135°07'0 0.0
2017-Dec-23 17:28N 34°14' E 135°07'0 0.0
2017-Dec-23 16:58N 34°14' E 135°07'0 0.0
2017-Dec-23 16:28N 34°14' E 135°07'0 0.0
2017-Dec-23 15:58N 34°14' E 135°07'0 0.0
2017-Dec-23 15:28N 34°14' E 135°07'0 0.0
2017-Dec-23 14:58N 34°14' E 135°07'0 0.0
2017-Dec-23 14:28N 34°14' E 135°07'0 0.0
2017-Dec-23 13:58N 34°14' E 135°07'0 0.0
2017-Dec-23 13:28N 34°14' E 135°07'0 0.0
2017-Dec-23 12:58N 34°14' E 135°07'0 0.0
2017-Dec-23 12:28N 34°14' E 135°07'0 0.0
2017-Dec-23 11:58N 34°14' E 135°07'0 0.0
2017-Dec-23 11:28N 34°14' E 135°07'0 0.0
2017-Dec-23 10:58N 34°14' E 135°07'0 0.0
2017-Dec-23 10:28N 34°14' E 135°07'0 0.0
2017-Dec-23 09:58N 34°14' E 135°07'0 0.0
2017-Dec-23 09:28N 34°14' E 135°07'0 0.0
2017-Dec-23 08:58N 34°14' E 135°07'0 0.0
2017-Dec-23 08:28N 34°14' E 135°07'0 0.0
2017-Dec-23 07:58N 34°14' E 135°07'0 0.0
2017-Dec-23 07:28N 34°14' E 135°07'0 0.0
2017-Dec-23 06:58N 34°14' E 135°07'0 0.0
2017-Dec-23 06:28N 34°14' E 135°07'0 0.0
2017-Dec-23 05:58N 34°14' E 135°07'0 0.0
2017-Dec-23 05:28N 34°14' E 135°07'0 0.0
2017-Dec-23 04:58N 34°14' E 135°07'0 0.0
2017-Dec-23 04:28N 34°14' E 135°07'0 0.0
2017-Dec-23 03:58N 34°14' E 135°07'0 0.0
2017-Dec-23 03:28N 34°14' E 135°07'0 0.0
2017-Dec-23 02:58N 34°14' E 135°07'0 0.0
2017-Dec-23 02:28N 34°14' E 135°07'0 0.0
2017-Dec-23 01:58N 34°14' E 135°07'0 0.0
2017-Dec-23 01:28N 34°14' E 135°07'0 0.0
2017-Dec-23 00:58N 34°14' E 135°07'0 0.0
2017-Dec-23 00:28N 34°14' E 135°07'0 0.1
2017-Dec-22 23:58N 34°14' E 135°07'0 0.1
2017-Dec-22 23:28N 34°14' E 135°07'0 0.0
2017-Dec-22 22:58N 34°14' E 135°07'0 0.0
2017-Dec-22 22:28N 34°14' E 135°07'0 0.0
2017-Dec-22 21:58N 34°14' E 135°07'0 0.0
2017-Dec-22 21:28N 34°14' E 135°07'0 0.0
2017-Dec-22 20:58N 34°14' E 135°07'0 0.0
2017-Dec-22 20:28N 34°14' E 135°07'0 0.0
2017-Dec-22 19:58N 34°14' E 135°07'0 0.0
2017-Dec-22 19:28N 34°14' E 135°07'0 0.0
2017-Dec-22 18:58N 34°14' E 135°07'0 0.0
2017-Dec-22 18:28N 34°14' E 135°07'0 0.0
2017-Dec-22 17:58N 34°14' E 135°07'0 0.0
2017-Dec-22 17:28N 34°14' E 135°07'0 0.0
2017-Dec-22 16:58N 34°14' E 135°07'0 0.0
2017-Dec-22 16:28N 34°14' E 135°07'0 0.0
2017-Dec-22 15:58N 34°14' E 135°07'0 0.0
2017-Dec-22 15:28N 34°14' E 135°07'0 0.0
2017-Dec-22 14:58N 34°14' E 135°07'0 0.0
2017-Dec-22 14:28N 34°14' E 135°07'0 0.0
2017-Dec-22 13:58N 34°14' E 135°07'0 0.0
2017-Dec-22 13:28N 34°14' E 135°07'0 0.0
2017-Dec-22 12:58N 34°14' E 135°07'0 0.0
2017-Dec-22 12:28N 34°14' E 135°07'0 0.0
2017-Dec-22 11:58N 34°14' E 135°07'0 0.0
2017-Dec-22 11:28N 34°14' E 135°07'0 0.0
2017-Dec-22 10:58N 34°14' E 135°07'0 0.0
2017-Dec-22 10:28N 34°14' E 135°07'0 0.0
2017-Dec-22 09:58N 34°14' E 135°07'0 0.0
2017-Dec-22 09:28N 34°14' E 135°07'0 0.0
2017-Dec-22 08:58N 34°14' E 135°07'0 0.0
2017-Dec-22 08:28N 34°14' E 135°07'0 0.0
2017-Dec-22 07:58N 34°14' E 135°07'0 0.0
2017-Dec-22 07:28N 34°14' E 135°07'0 0.0
2017-Dec-22 06:58N 34°14' E 135°07'0 0.0
2017-Dec-22 06:28N 34°14' E 135°07'0 0.0
2017-Dec-22 05:58N 34°14' E 135°07'0 0.0
2017-Dec-22 05:28N 34°14' E 135°07'0 0.0
2017-Dec-22 04:58N 34°14' E 135°07'0 0.0
2017-Dec-22 04:28N 34°14' E 135°07'0 0.0
2017-Dec-22 03:58N 34°14' E 135°07'0 0.0
2017-Dec-22 03:28N 34°14' E 135°07'0 0.0
2017-Dec-22 02:58N 34°14' E 135°07'0 0.0
2017-Dec-22 02:28N 34°14' E 135°07'0 0.0
2017-Dec-22 01:58N 34°14' E 135°07'0 0.0
2017-Dec-22 01:28N 34°14' E 135°07'0 0.0
2017-Dec-22 00:58N 34°14' E 135°07'0 0.0
2017-Dec-22 00:28N 34°14' E 135°07'0 0.0
2017-Dec-21 23:58N 34°14' E 135°07'0 0.0
2017-Dec-21 23:28N 34°14' E 135°07'0 0.0
2017-Dec-21 22:58N 34°14' E 135°07'0 0.0
2017-Dec-21 22:22N 34°14' E 135°07'0 0.0
2017-Dec-21 21:58N 34°14' E 135°07'0 0.0
2017-Dec-21 21:28N 34°14' E 135°07'0 0.0
2017-Dec-21 20:58N 34°14' E 135°07'0 0.0
2017-Dec-21 20:28N 34°14' E 135°07'0 0.0
2017-Dec-21 19:58N 34°14' E 135°07'0 0.0
2017-Dec-21 19:28N 34°14' E 135°07'0 0.0
2017-Dec-21 18:58N 34°14' E 135°07'0 0.0
2017-Dec-21 18:28N 34°14' E 135°07'0 0.0
2017-Dec-21 17:58N 34°14' E 135°07'0 0.0
2017-Dec-21 17:28N 34°14' E 135°07'0 0.0
2017-Dec-21 16:58N 34°14' E 135°07'0 0.0
2017-Dec-21 16:28N 34°14' E 135°07'0 0.0
2017-Dec-21 15:58N 34°14' E 135°07'0 0.0
2017-Dec-21 15:28N 34°14' E 135°07'0 0.0
2017-Dec-21 14:58N 34°14' E 135°07'0 0.0
2017-Dec-21 14:28N 34°14' E 135°07'0 0.0
2017-Dec-21 13:58N 34°14' E 135°07'0 0.0
2017-Dec-21 13:28N 34°14' E 135°07'0 0.0
2017-Dec-21 12:58N 34°14' E 135°07'0 0.0
2017-Dec-21 12:28N 34°14' E 135°07'0 0.0
2017-Dec-21 11:58N 34°14' E 135°07'0 0.0
2017-Dec-21 11:28N 34°14' E 135°07'0 0.0
2017-Dec-21 10:58N 34°14' E 135°07'0 0.0
2017-Dec-21 10:22N 34°14' E 135°07'0 0.0
2017-Dec-21 09:58N 34°14' E 135°07'0 0.0
2017-Dec-21 09:16N 34°14' E 135°07'0 0.0
2017-Dec-21 08:58N 34°14' E 135°07'0 0.0
2017-Dec-21 08:28N 34°14' E 135°07'0 0.0
2017-Dec-21 07:58N 34°14' E 135°07'0 0.0
2017-Dec-21 07:28N 34°14' E 135°07'0 0.0
2017-Dec-21 06:58N 34°14' E 135°07'0 0.0
2017-Dec-21 06:28N 34°14' E 135°07'0 0.0
2017-Dec-21 05:58N 34°14' E 135°07'0 0.0
2017-Dec-21 05:28N 34°14' E 135°07'0 0.0
2017-Dec-21 04:58N 34°14' E 135°07'0 0.0
2017-Dec-21 04:28N 34°14' E 135°07'0 0.0
2017-Dec-21 03:58N 34°14' E 135°07'0 0.0
2017-Dec-21 03:28N 34°14' E 135°07'0 0.0
2017-Dec-21 02:58N 34°14' E 135°07'0 0.0
2017-Dec-21 02:28N 34°14' E 135°07'0 0.0
2017-Dec-21 01:58N 34°14' E 135°07'0 0.0
2017-Dec-21 01:28N 34°14' E 135°07'0 0.0
2017-Dec-21 00:58N 34°14' E 135°07'0 0.0
2017-Dec-21 00:28N 34°14' E 135°07'0 0.0
2017-Dec-20 23:58N 34°14' E 135°07'0 0.0
2017-Dec-20 23:28N 34°14' E 135°07'0 0.0
2017-Dec-20 22:58N 34°14' E 135°07'0 0.0
2017-Dec-20 22:28N 34°14' E 135°07'0 0.0
2017-Dec-20 21:58N 34°14' E 135°07'0 0.0
2017-Dec-20 21:28N 34°14' E 135°07'0 0.0
2017-Dec-20 20:58N 34°14' E 135°07'0 0.0
2017-Dec-20 20:28N 34°14' E 135°07'0 0.0
2017-Dec-20 19:58N 34°14' E 135°07'0 0.0
2017-Dec-20 19:28N 34°14' E 135°07'0 0.0
2017-Dec-20 18:58N 34°14' E 135°07'0 0.0
2017-Dec-20 18:28N 34°14' E 135°07'0 0.0
2017-Dec-20 17:58N 34°14' E 135°07'0 0.0
2017-Dec-20 17:28N 34°14' E 135°07'0 0.0
2017-Dec-20 16:58N 34°14' E 135°07'0 0.0
2017-Dec-20 16:28N 34°14' E 135°07'0 0.0
2017-Dec-20 15:58N 34°14' E 135°07'0 0.0
2017-Dec-20 15:28N 34°14' E 135°07'0 0.0
2017-Dec-20 14:58N 34°14' E 135°07'0 0.0
2017-Dec-20 14:28N 34°14' E 135°07'0 0.0
2017-Dec-20 13:58N 34°14' E 135°07'0 0.0
2017-Dec-20 13:28N 34°14' E 135°07'0 0.0
2017-Dec-20 12:58N 34°14' E 135°07'0 0.0
2017-Dec-20 12:28N 34°14' E 135°07'0 0.0
2017-Dec-20 11:58N 34°14' E 135°07'0 0.0
2017-Dec-20 11:28N 34°14' E 135°07'0 0.0
2017-Dec-20 10:58N 34°14' E 135°07'0 0.0
2017-Dec-20 10:28N 34°14' E 135°07'0 0.0
2017-Dec-20 09:58N 34°14' E 135°07'0 0.0
2017-Dec-20 09:28N 34°14' E 135°07'0 0.0
2017-Dec-20 08:58N 34°14' E 135°07'0 0.0
2017-Dec-20 08:28N 34°14' E 135°07'0 0.0
2017-Dec-20 07:58N 34°14' E 135°07'0 0.0
2017-Dec-20 07:28N 34°14' E 135°07'0 0.0
2017-Dec-20 06:58N 34°14' E 135°07'0 0.0
2017-Dec-20 06:28N 34°14' E 135°07'0 0.0
2017-Dec-20 05:58N 34°14' E 135°07'0 0.0
2017-Dec-20 05:28N 34°14' E 135°07'0 0.0
2017-Dec-20 04:58N 34°14' E 135°07'0 0.1
2017-Dec-20 04:28N 34°14' E 135°07'0 0.1
2017-Dec-20 03:58N 34°14' E 135°07'0 0.0
2017-Dec-20 03:28N 34°14' E 135°07'0 0.0
2017-Dec-20 02:58N 34°14' E 135°07'0 0.0
2017-Dec-20 02:28N 34°14' E 135°07'0 0.0
2017-Dec-20 01:58N 34°14' E 135°07'0 0.0
2017-Dec-20 01:28N 34°14' E 135°07'0 0.0
2017-Dec-20 00:58N 34°14' E 135°07'0 0.0
2017-Dec-20 00:28N 34°14' E 135°07'0 0.0
2017-Dec-19 23:58N 34°14' E 135°07'0 0.0
2017-Dec-19 23:28N 34°14' E 135°07'0 0.0
2017-Dec-19 22:58N 34°14' E 135°07'0 0.0
2017-Dec-19 22:28N 34°14' E 135°07'0 0.0
2017-Dec-19 21:58N 34°14' E 135°07'0 0.0
2017-Dec-19 21:28N 34°14' E 135°07'0 0.0
2017-Dec-19 20:58N 34°14' E 135°07'0 0.1
2017-Dec-19 20:28N 34°14' E 135°07'0 0.1
2017-Dec-19 19:58N 34°14' E 135°07'0 0.0
2017-Dec-19 19:28N 34°14' E 135°07'0 0.0
2017-Dec-19 18:58N 34°14' E 135°07'0 0.0
2017-Dec-19 18:28N 34°14' E 135°07'0 0.0
2017-Dec-19 17:58N 34°14' E 135°07'0 0.0
2017-Dec-19 17:28N 34°14' E 135°07'0 0.0
2017-Dec-19 16:58N 34°14' E 135°07'0 0.0
2017-Dec-19 16:28N 34°14' E 135°07'0 0.0
2017-Dec-19 15:58N 34°14' E 135°07'0 0.0
2017-Dec-19 15:28N 34°14' E 135°07'0 0.0
2017-Dec-19 14:58N 34°14' E 135°07'0 0.0
2017-Dec-19 14:28N 34°14' E 135°07'0 0.0
2017-Dec-19 13:58N 34°14' E 135°07'0 0.0
2017-Dec-19 13:28N 34°14' E 135°07'0 0.0
2017-Dec-19 12:58N 34°14' E 135°07'0 0.0
2017-Dec-19 12:28N 34°14' E 135°07'0 0.0
2017-Dec-19 11:58N 34°14' E 135°07'0 0.0
2017-Dec-19 11:28N 34°14' E 135°07'0 0.0
2017-Dec-19 10:58N 34°14' E 135°07'0 0.0
2017-Dec-19 10:28N 34°14' E 135°07'0 0.0
2017-Dec-19 09:58N 34°14' E 135°07'0 0.0
2017-Dec-19 09:28N 34°14' E 135°07'0 0.0
2017-Dec-19 08:58N 34°14' E 135°07'0 0.0
2017-Dec-19 08:28N 34°14' E 135°07'0 0.0
2017-Dec-19 07:58N 34°14' E 135°07'0 0.0
2017-Dec-19 07:28N 34°14' E 135°07'0 0.0
2017-Dec-19 06:58N 34°14' E 135°07'0 0.0
2017-Dec-19 06:28N 34°14' E 135°07'0 0.0
2017-Dec-19 05:58N 34°14' E 135°07'0 0.0
2017-Dec-19 05:25N 34°14' E 135°07'0 0.0
2017-Dec-19 04:58N 34°14' E 135°07'0 0.0
2017-Dec-19 04:28N 34°14' E 135°07'0 0.0
2017-Dec-19 03:58N 34°14' E 135°07'0 0.0
2017-Dec-19 03:28N 34°14' E 135°07'0 0.0
2017-Dec-19 02:58N 34°14' E 135°07'0 0.0
2017-Dec-19 02:28N 34°14' E 135°07'0 0.0
2017-Dec-19 01:58N 34°14' E 135°07'0 0.0
2017-Dec-19 01:28N 34°14' E 135°07'0 0.0
2017-Dec-19 00:55N 34°14' E 135°07'0 0.0
2017-Dec-19 00:28N 34°14' E 135°07'0 0.0
2017-Dec-18 23:58N 34°14' E 135°07'0 0.0
2017-Dec-18 23:28N 34°14' E 135°07'0 0.0
2017-Dec-18 22:58N 34°14' E 135°07'0 0.0
2017-Dec-18 22:28N 34°14' E 135°07'0 0.0
2017-Dec-18 21:58N 34°14' E 135°07'0 0.0
2017-Dec-18 21:28N 34°14' E 135°07'0 0.0
2017-Dec-18 20:58N 34°14' E 135°07'0 0.0
2017-Dec-18 20:28N 34°14' E 135°07'0 0.0
2017-Dec-18 19:58N 34°14' E 135°07'0 0.0
2017-Dec-18 19:28N 34°14' E 135°07'0 0.0
2017-Dec-18 18:58N 34°14' E 135°07'0 0.0
2017-Dec-18 18:28N 34°14' E 135°07'0 0.0
2017-Dec-18 17:58N 34°14' E 135°07'0 0.0
2017-Dec-18 17:28N 34°14' E 135°07'0 0.0
2017-Dec-18 16:58N 34°14' E 135°07'0 0.0
2017-Dec-18 16:28N 34°14' E 135°07'0 0.0
2017-Dec-18 15:58N 34°14' E 135°07'0 0.0
2017-Dec-18 15:28N 34°14' E 135°07'0 0.0
2017-Dec-18 14:58N 34°14' E 135°07'0 0.0
2017-Dec-18 14:28N 34°14' E 135°07'0 0.0
2017-Dec-18 13:58N 34°14' E 135°07'0 0.0
2017-Dec-18 13:28N 34°14' E 135°07'0 0.0
2017-Dec-18 12:58N 34°14' E 135°07'0 0.0
2017-Dec-18 12:28N 34°14' E 135°07'0 0.0
2017-Dec-18 11:58N 34°14' E 135°07'0 0.0
2017-Dec-18 11:28N 34°14' E 135°07'0 0.0
2017-Dec-18 10:58N 34°14' E 135°07'0 0.0
2017-Dec-18 10:28N 34°14' E 135°07'0 0.0
2017-Dec-18 09:58N 34°14' E 135°07'0 0.0
2017-Dec-18 09:28N 34°14' E 135°07'0 0.0
2017-Dec-18 08:58N 34°14' E 135°07'0 0.0
2017-Dec-18 08:28N 34°14' E 135°07'0 0.0
2017-Dec-18 07:58N 34°14' E 135°07'0 0.0
2017-Dec-18 07:28N 34°14' E 135°07'0 0.0
2017-Dec-18 06:58N 34°14' E 135°07'0 0.0
2017-Dec-18 06:28N 34°14' E 135°07'0 0.0
2017-Dec-18 05:58N 34°14' E 135°07'0 0.0
2017-Dec-18 05:28N 34°14' E 135°07'0 0.0
2017-Dec-18 04:58N 34°14' E 135°07'0 0.0
2017-Dec-18 04:28N 34°14' E 135°07'  

Dump ship's entire track history